Time;durP1;ratioP1;P1;durP2;ratioP2;P2;SDS_P1;SDS_P2;PMS_P1;PMS_P2;Temp;Humidity;BMP_temperature;BMP_pressure;BME280_temperature;BME280_humidity;BME280_pressure;Samples;Min_cycle;Max_cycle;Signal;HPM_P1;HPM_P2
2021/04/19 00:00:26;;;;;;;10.73;8.02;;;7.00;99.90;;;;;;4994781;28;20094;-83
2021/04/19 00:02:53;;;;;;;9.18;7.05;;;7.00;99.90;;;;;;4994986;28;20472;-83
2021/04/19 00:05:20;;;;;;;14.48;8.65;;;6.90;99.90;;;;;;4995111;28;20050;-83
2021/04/19 00:07:47;;;;;;;11.02;7.97;;;6.90;99.90;;;;;;4994965;28;20053;-83
2021/04/19 00:10:16;;;;;;;11.43;7.25;;;6.80;99.90;;;;;;4996032;28;20554;-83
2021/04/19 00:12:43;;;;;;;10.13;7.43;;;6.80;99.90;;;;;;4994805;28;20125;-83
2021/04/19 00:15:11;;;;;;;10.95;7.22;;;6.80;99.90;;;;;;4996021;28;20120;-83
2021/04/19 00:17:38;;;;;;;10.43;7.97;;;6.90;99.90;;;;;;4994470;28;20126;-83
2021/04/19 00:20:06;;;;;;;10.18;7.72;;;6.90;99.90;;;;;;4995970;28;20054;-83
2021/04/19 00:22:33;;;;;;;10.60;8.63;;;6.90;99.90;;;;;;4995730;28;20100;-83
2021/04/19 00:25:00;;;;;;;14.63;8.88;;;7.00;99.90;;;;;;4994695;28;20492;-83
2021/04/19 00:27:27;;;;;;;14.48;10.05;;;6.90;99.90;;;;;;4995753;28;20050;-83
2021/04/19 00:29:53;;;;;;;15.82;10.15;;;6.80;99.90;;;;;;4994545;28;20561;-83
2021/04/19 00:32:19;;;;;;;14.93;10.32;;;6.90;99.90;;;;;;4994240;28;20064;-83
2021/04/19 00:34:46;;;;;;;15.18;9.38;;;6.80;99.90;;;;;;4995684;28;20136;-83
2021/04/19 00:37:13;;;;;;;19.42;12.07;;;6.80;99.90;;;;;;4994424;28;20073;-83
2021/04/19 00:39:39;;;;;;;13.82;10.18;;;6.90;99.90;;;;;;4995671;28;20046;-83
2021/04/19 00:42:06;;;;;;;12.02;7.97;;;6.80;99.90;;;;;;4994601;28;20117;-83
2021/04/19 00:44:32;;;;;;;9.68;7.18;;;6.80;99.90;;;;;;4993923;28;20109;-83
2021/04/19 00:47:00;;;;;;;14.77;8.98;;;6.70;99.90;;;;;;4995185;28;20410;-83
2021/04/19 00:49:27;;;;;;;11.52;8.57;;;6.60;99.90;;;;;;4995512;28;20054;-83
2021/04/19 00:51:55;;;;;;;13.55;9.40;;;6.60;99.90;;;;;;4994185;28;20046;-83
2021/04/19 00:54:22;;;;;;;18.52;11.52;;;6.60;99.90;;;;;;4993837;28;20054;-83
2021/04/19 00:56:52;;;;;;;22.13;12.57;;;6.60;99.90;;;;;;4994149;28;20133;-83
2021/04/19 00:59:19;;;;;;;16.17;10.90;;;6.60;99.90;;;;;;4995064;28;20050;-82
2021/04/19 01:01:46;;;;;;;17.88;11.25;;;6.60;99.90;;;;;;4993728;28;20092;-84
2021/04/19 01:04:13;;;;;;;20.38;11.32;;;6.60;99.90;;;;;;4993966;28;20446;-84
2021/04/19 01:06:40;;;;;;;21.55;12.23;;;6.60;99.90;;;;;;4993693;28;20132;-83
2021/04/19 01:09:07;;;;;;;16.27;10.10;;;6.60;99.90;;;;;;4992740;28;20050;-83
2021/04/19 01:11:33;;;;;;;21.08;10.95;;;6.60;99.90;;;;;;4994710;28;20054;-83
2021/04/19 01:14:00;;;;;;;20.65;12.75;;;6.60;99.90;;;;;;4994670;28;20085;-83
2021/04/19 01:16:26;;;;;;;18.10;10.95;;;6.60;99.90;;;;;;4993562;28;20145;-83
2021/04/19 01:18:53;;;;;;;15.90;10.05;;;6.60;99.90;;;;;;4993686;28;20046;-84
2021/04/19 01:21:19;;;;;;;15.93;10.38;;;6.60;99.90;;;;;;4993767;28;20133;-83
2021/04/19 01:23:45;;;;;;;16.55;10.60;;;6.60;99.90;;;;;;4993680;28;20074;-83
2021/04/19 01:26:12;;;;;;;10.68;8.27;;;6.60;99.90;;;;;;4994495;28;20478;-83
2021/04/19 01:28:50;;;;;;;10.20;8.40;;;6.60;99.90;;;;;;4993700;28;20046;-83
2021/04/19 01:31:17;;;;;;;14.18;8.55;;;6.50;99.90;;;;;;4994734;28;20093;-83
2021/04/19 01:33:43;;;;;;;13.95;9.10;;;6.50;99.90;;;;;;4994486;28;20050;-82
2021/04/19 01:36:10;;;;;;;17.40;10.48;;;6.50;99.90;;;;;;4993169;28;20050;-83
2021/04/19 01:38:37;;;;;;;21.33;12.68;;;6.50;99.90;;;;;;4993191;28;20517;-83
2021/04/19 01:41:04;;;;;;;25.67;14.60;;;6.50;99.90;;;;;;4994405;28;20082;-83
2021/04/19 01:43:31;;;;;;;24.73;14.27;;;6.40;99.90;;;;;;4994316;28;20137;-83
2021/04/19 01:45:57;;;;;;;30.23;15.13;;;6.40;99.90;;;;;;4994466;28;20096;-83
2021/04/19 01:48:24;;;;;;;22.95;13.15;;;6.40;99.90;;;;;;4992897;28;20129;-83
2021/04/19 01:50:53;;;;;;;20.52;12.15;;;6.50;99.90;;;;;;4993018;28;20573;-83
2021/04/19 01:53:20;;;;;;;22.70;12.98;;;6.50;99.90;;;;;;4993094;28;20089;-83
2021/04/19 01:55:46;;;;;;;20.83;12.05;;;6.60;99.90;;;;;;4993888;28;20049;-83
2021/04/19 01:58:18;;;;;;;23.25;12.70;;;6.60;99.90;;;;;;4993894;28;20093;-83
2021/04/19 02:00:51;;;;;;;20.67;12.57;;;6.50;99.90;;;;;;4992552;28;20064;-83
2021/04/19 02:03:38;;;;;;;17.40;10.77;;;6.50;99.90;;;;;;4993652;28;20462;-82
2021/04/19 02:06:20;;;;;;;12.30;9.50;;;6.60;99.90;;;;;;4993828;28;20046;-82
2021/04/19 02:09:01;;;;;;;13.18;9.27;;;6.60;99.90;;;;;;4993865;28;20101;-82
2021/04/19 02:11:36;;;;;;;14.85;9.65;;;6.60;99.90;;;;;;4992647;28;20133;-83
2021/04/19 02:14:22;;;;;;;15.60;10.02;;;6.60;99.90;;;;;;4993709;28;20491;-83
2021/04/19 02:16:57;;;;;;;12.20;8.70;;;6.60;99.90;;;;;;4993999;28;20145;-82
2021/04/19 02:19:44;;;;;;;13.25;8.75;;;6.60;99.90;;;;;;4993487;28;20047;-83
2021/04/19 02:22:18;;;;;;;10.77;8.35;;;6.50;99.90;;;;;;4993742;28;20058;-82
2021/04/19 02:24:50;;;;;;;13.52;8.80;;;6.50;99.90;;;;;;4992571;28;20578;-83
2021/04/19 02:27:30;;;;;;;12.48;8.43;;;6.40;99.90;;;;;;4993654;28;20108;-83
2021/04/19 02:29:59;;;;;;;12.98;9.45;;;6.30;99.90;;;;;;4993758;28;20054;-82
2021/04/19 02:32:36;;;;;;;13.55;9.75;;;6.20;99.90;;;;;;4993310;28;20411;-83
2021/04/19 02:35:11;;;;;;;11.80;9.35;;;6.20;99.90;;;;;;4993447;28;20077;-83
2021/04/19 02:37:39;;;;;;;16.13;10.80;;;6.10;99.90;;;;;;4993527;28;20050;-82
2021/04/19 02:40:08;;;;;;;17.35;11.02;;;6.10;99.90;;;;;;4993573;28;20043;-83
2021/04/19 02:42:39;;;;;;;19.95;12.48;;;6.10;99.90;;;;;;4992182;28;20117;-83
2021/04/19 02:45:08;;;;;;;18.23;11.40;;;6.20;99.90;;;;;;4993557;28;20074;-83
2021/04/19 02:47:35;;;;;;;16.63;11.57;;;6.20;99.90;;;;;;4992053;28;20571;-83
2021/04/19 02:50:06;;;;;;;14.80;10.40;;;6.10;99.90;;;;;;4992229;28;20057;-83
2021/04/19 02:52:33;;;;;;;14.20;10.57;;;6.20;99.90;;;;;;4992184;28;20482;-83
2021/04/19 02:55:00;;;;;;;15.85;10.88;;;6.10;99.90;;;;;;4991987;28;20042;-83
2021/04/19 02:57:35;;;;;;;16.30;11.20;;;6.10;99.90;;;;;;4993220;28;20521;-83
2021/04/19 03:00:03;;;;;;;17.85;11.32;;;6.00;99.90;;;;;;4993282;28;20137;-83
2021/04/19 03:02:32;;;;;;;16.13;10.60;;;6.00;99.90;;;;;;4991926;28;20140;-83
2021/04/19 03:05:01;;;;;;;14.60;10.40;;;5.90;99.90;;;;;;4993326;28;20073;-82
2021/04/19 03:07:38;;;;;;;16.50;11.60;;;5.80;99.90;;;;;;4993117;28;20133;-83
2021/04/19 03:10:11;;;;;;;23.98;13.55;;;5.80;99.90;;;;;;4993255;28;20050;-83
2021/04/19 03:12:41;;;;;;;23.25;14.38;;;5.70;99.90;;;;;;4991553;28;20337;-83
2021/04/19 03:15:12;;;;;;;25.17;13.48;;;5.80;99.90;;;;;;4993374;28;20145;-83
2021/04/19 03:17:40;;;;;;;23.75;14.60;;;5.80;99.90;;;;;;4992963;28;20046;-83
2021/04/19 03:20:13;;;;;;;20.10;13.30;;;5.80;99.90;;;;;;4992895;28;20058;-83
2021/04/19 03:22:43;;;;;;;21.87;13.37;;;5.80;99.90;;;;;;4992005;28;20065;-83
2021/04/19 03:25:11;;;;;;;21.50;13.27;;;5.80;99.90;;;;;;4991619;28;20050;-83
2021/04/19 03:27:41;;;;;;;22.20;13.90;;;5.70;99.90;;;;;;4992981;28;20141;-83
2021/04/19 03:30:08;;;;;;;24.40;12.73;;;5.60;99.90;;;;;;4992071;28;20054;-83
2021/04/19 03:32:46;;;;;;;24.92;13.70;;;5.50;99.90;;;;;;4994176;28;20129;-84
2021/04/19 03:35:16;;;;;;;26.35;14.40;;;5.50;99.90;;;;;;4996656;28;20137;-83
2021/04/19 03:37:45;;;;;;;25.13;13.68;;;5.60;99.90;;;;;;4995211;28;20046;-83
2021/04/19 03:40:30;;;;;;;26.08;14.23;;;5.50;99.90;;;;;;4996567;28;20125;-83
2021/04/19 03:43:01;;;;;;;24.30;14.10;;;5.50;99.90;;;;;;4996021;28;20088;-83
2021/04/19 03:45:31;;;;;;;26.77;15.23;;;5.60;99.90;;;;;;4995346;28;20082;-83
2021/04/19 03:47:58;;;;;;;25.85;14.57;;;5.60;99.90;;;;;;4995244;28;20054;-83
2021/04/19 03:50:26;;;;;;;27.52;15.48;;;5.60;99.90;;;;;;4995072;28;20051;-83
2021/04/19 03:52:54;;;;;;;24.55;14.48;;;5.70;99.90;;;;;;4996420;28;20065;-83
2021/04/19 03:55:22;;;;;;;24.38;14.63;;;5.70;99.90;;;;;;4996232;28;20050;-83
2021/04/19 03:57:50;;;;;;;28.30;15.85;;;5.80;99.90;;;;;;4996265;28;20137;-83
2021/04/19 04:00:19;;;;;;;28.63;15.65;;;5.80;99.90;;;;;;4995831;28;20054;-83
2021/04/19 04:02:52;;;;;;;28.58;15.88;;;5.80;99.90;;;;;;4995109;28;20078;-83
2021/04/19 04:05:20;;;;;;;24.52;14.75;;;5.80;99.90;;;;;;4996072;28;20050;-83
2021/04/19 04:07:49;;;;;;;23.08;14.55;;;5.80;99.90;;;;;;4996128;28;20133;-83
2021/04/19 04:10:20;;;;;;;24.10;15.23;;;5.80;99.90;;;;;;4995940;28;20137;-83
2021/04/19 04:12:47;;;;;;;29.60;16.70;;;5.80;99.90;;;;;;4996152;28;20050;-83
2021/04/19 04:15:14;;;;;;;24.73;15.35;;;5.80;99.90;;;;;;4995830;28;20134;-83
2021/04/19 04:17:40;;;;;;;28.25;15.48;;;5.80;99.90;;;;;;4995906;28;20487;-84
2021/04/19 04:20:08;;;;;;;28.27;16.33;;;5.80;99.90;;;;;;4995986;28;20610;-83
2021/04/19 04:22:34;;;;;;;24.85;15.85;;;5.80;99.90;;;;;;4994280;28;20077;-84
2021/04/19 04:25:01;;;;;;;31.33;17.95;;;5.80;99.90;;;;;;4994653;28;20531;-83
2021/04/19 04:27:28;;;;;;;29.85;17.70;;;5.90;99.90;;;;;;4994351;28;20081;-83
2021/04/19 04:29:54;;;;;;;30.88;17.15;;;5.80;99.90;;;;;;4995586;28;20125;-83
2021/04/19 04:32:20;;;;;;;33.85;17.15;;;5.80;99.90;;;;;;4994248;28;20061;-83
2021/04/19 04:34:47;;;;;;;30.30;16.88;;;5.80;99.90;;;;;;4995655;28;20082;-84
2021/04/19 04:37:13;;;;;;;31.17;17.77;;;5.90;99.90;;;;;;4995446;28;20113;-83
2021/04/19 04:39:39;;;;;;;31.40;19.48;;;5.90;99.90;;;;;;4995587;28;20447;-83
2021/04/19 04:42:12;;;;;;;37.97;21.42;;;6.00;99.90;;;;;;4994124;28;20046;-83
2021/04/19 04:44:41;;;;;;;45.92;23.67;;;5.90;99.90;;;;;;4995113;28;20101;-83
2021/04/19 04:47:14;;;;;;;56.92;29.17;;;6.00;99.90;;;;;;4995379;28;20205;-83
2021/04/19 04:49:50;;;;;;;56.37;30.77;;;6.00;99.90;;;;;;4994097;28;20062;-83
2021/04/19 04:52:19;;;;;;;57.55;29.20;;;6.10;99.90;;;;;;4994090;28;20324;-84
2021/04/19 04:54:49;;;;;;;65.05;35.83;;;6.20;99.90;;;;;;4995083;28;20085;-83
2021/04/19 04:57:24;;;;;;;54.53;29.27;;;6.20;99.90;;;;;;4995051;28;20061;-82
2021/04/19 04:59:52;;;;;;;51.25;28.30;;;6.20;99.90;;;;;;4993706;28;20234;-83
2021/04/19 05:02:22;;;;;;;40.95;22.70;;;6.20;99.90;;;;;;4994639;28;20090;-83
2021/04/19 05:04:53;;;;;;;47.90;26.33;;;6.30;99.90;;;;;;4993956;28;20108;-83
2021/04/19 05:07:20;;;;;;;50.22;28.15;;;6.30;99.90;;;;;;4993482;28;20046;-83
2021/04/19 05:09:48;;;;;;;58.60;33.13;;;6.30;99.90;;;;;;4995006;28;20055;-83
2021/04/19 05:12:15;;;;;;;57.90;33.47;;;6.40;99.90;;;;;;4993535;28;20129;-83
2021/04/19 05:14:56;;;;;;;64.45;34.22;;;6.50;99.90;;;;;;4993705;28;20137;-83
2021/04/19 05:17:22;;;;;;;48.88;28.13;;;6.40;99.90;;;;;;4994672;28;20050;-83
2021/04/19 05:19:50;;;;;;;43.83;26.10;;;6.30;99.90;;;;;;4993424;28;20506;-83
2021/04/19 05:22:16;;;;;;;50.42;26.02;;;6.40;99.90;;;;;;4994519;28;20050;-83
2021/04/19 05:24:43;;;;;;;52.05;28.05;;;6.40;99.90;;;;;;4993526;28;20478;-83
2021/04/19 05:27:11;;;;;;;49.15;25.15;;;6.40;99.90;;;;;;4994536;28;20447;-83
2021/04/19 05:29:39;;;;;;;47.08;26.55;;;6.30;99.90;;;;;;4994623;28;20475;-83
2021/04/19 05:32:10;;;;;;;54.38;27.65;;;6.50;99.90;;;;;;4993280;28;20058;-83
2021/04/19 05:34:37;;;;;;;53.50;28.58;;;6.60;99.90;;;;;;4994453;28;20141;-83
2021/04/19 05:37:05;;;;;;;53.67;28.50;;;6.70;99.90;;;;;;4993229;28;20104;-83
2021/04/19 05:39:33;;;;;;;53.88;29.13;;;6.70;99.90;;;;;;4993093;28;20129;-82
2021/04/19 05:42:04;;;;;;;56.40;28.98;;;6.60;99.90;;;;;;4993131;28;20104;-83
2021/04/19 05:44:31;;;;;;;58.15;30.65;;;6.60;99.90;;;;;;4994144;28;20052;-83
2021/04/19 05:47:01;;;;;;;58.28;30.00;;;6.50;99.90;;;;;;4993055;28;20100;-84
2021/04/19 05:49:28;;;;;;;54.83;29.63;;;6.50;99.90;;;;;;4992939;28;20061;-83
2021/04/19 05:51:57;;;;;;;58.85;31.25;;;6.40;99.90;;;;;;4993017;28;20121;-83
2021/04/19 05:54:25;;;;;;;58.28;30.25;;;6.40;99.90;;;;;;4992437;28;20447;-83
2021/04/19 05:57:10;;;;;;;62.92;31.30;;;6.50;99.90;;;;;;4992820;28;20138;-83
2021/04/19 05:59:51;;;;;;;51.58;28.92;;;6.50;99.90;;;;;;4994185;28;20065;-83
2021/04/19 06:02:27;;;;;;;53.38;29.02;;;6.50;99.90;;;;;;4992383;28;20046;-83
2021/04/19 06:05:06;;;;;;;55.00;30.70;;;6.60;99.90;;;;;;4994083;28;20062;-83
2021/04/19 06:07:44;;;;;;;53.67;29.08;;;6.70;99.90;;;;;;4993618;28;20046;-82
2021/04/19 06:10:14;;;;;;;50.80;28.50;;;6.80;99.90;;;;;;4993905;28;20061;-83
2021/04/19 06:12:45;;;;;;;57.58;30.63;;;6.90;99.90;;;;;;4993780;28;20105;-83
2021/04/19 06:15:14;;;;;;;54.55;29.65;;;6.90;99.90;;;;;;4993871;28;20089;-84
2021/04/19 06:17:45;;;;;;;51.75;28.75;;;6.70;99.90;;;;;;4992558;28;20491;-83
2021/04/19 06:20:16;;;;;;;58.97;30.65;;;6.80;99.90;;;;;;4993632;28;20054;-82
2021/04/19 06:22:43;;;;;;;62.47;31.80;;;6.70;99.90;;;;;;4992272;28;20407;-83
2021/04/19 06:25:14;;;;;;;63.58;31.20;;;6.80;99.90;;;;;;4992382;28;20133;-83
2021/04/19 06:27:41;;;;;;;72.30;32.85;;;6.80;99.90;;;;;;4993621;28;20092;-83
2021/04/19 06:30:18;;;;;;;74.55;33.50;;;6.80;99.90;;;;;;4992467;28;20054;-83
2021/04/19 06:32:48;;;;;;;72.80;34.42;;;6.70;99.90;;;;;;4992253;28;20104;-83
2021/04/19 06:35:16;;;;;;;72.70;33.30;;;6.70;99.90;;;;;;4992275;28;20137;-83
2021/04/19 06:37:49;;;;;;;76.82;34.45;;;6.90;99.90;;;;;;4993554;28;20051;-83
2021/04/19 06:40:16;;;;;;;74.75;33.30;;;7.10;99.90;;;;;;4992377;28;20575;-83
2021/04/19 06:42:43;;;;;;;67.78;33.08;;;7.10;99.90;;;;;;4992257;28;20133;-83
2021/04/19 06:45:13;;;;;;;69.50;32.05;;;7.30;99.90;;;;;;4992324;28;20546;-84
2021/04/19 06:47:40;;;;;;;57.05;30.08;;;7.50;99.90;;;;;;4992259;28;20050;-83
2021/04/19 06:50:08;;;;;;;55.03;30.27;;;7.80;99.90;;;;;;4992354;28;20042;-83
2021/04/19 06:52:35;;;;;;;49.63;27.98;;;8.10;99.90;;;;;;4992068;28;20190;-83
2021/04/19 06:55:03;;;;;;;45.70;26.23;;;8.50;99.90;;;;;;4992176;28;20454;-83
2021/04/19 06:57:35;;;;;;;40.65;25.45;;;9.10;99.90;;;;;;4993096;28;20411;-83
2021/04/19 07:00:04;;;;;;;38.83;24.38;;;9.80;99.90;;;;;;4992002;28;20046;-83
2021/04/19 07:02:33;;;;;;;41.17;25.45;;;10.10;99.90;;;;;;4993238;28;20101;-83
2021/04/19 07:05:00;;;;;;;36.55;24.30;;;9.90;99.90;;;;;;4992230;28;20042;-84
2021/04/19 07:07:31;;;;;;;40.08;24.52;;;9.80;99.90;;;;;;4994711;28;20144;-83
2021/04/19 07:10:00;;;;;;;38.15;23.73;;;9.40;99.90;;;;;;4999521;28;20093;-83
2021/04/19 07:12:27;;;;;;;37.75;23.55;;;9.30;99.90;;;;;;4995684;28;20582;-83
2021/04/19 07:14:55;;;;;;;35.55;22.75;;;9.10;99.90;;;;;;4997022;28;20509;-83
2021/04/19 07:17:21;;;;;;;35.63;21.50;;;9.00;99.90;;;;;;4995654;28;20054;-84
2021/04/19 07:19:49;;;;;;;167.48;112.13;;;8.80;99.90;;;;;;4995751;28;20069;-83
2021/04/19 07:22:16;;;;;;;49.70;33.75;;;8.70;99.90;;;;;;4995695;28;20058;-84
2021/04/19 07:24:43;;;;;;;40.92;25.08;;;8.60;99.90;;;;;;4996672;28;20133;-83
2021/04/19 07:27:13;;;;;;;31.42;20.90;;;8.70;99.90;;;;;;4995988;28;20050;-83
2021/04/19 07:29:40;;;;;;;36.38;23.25;;;8.70;99.90;;;;;;4995662;28;20054;-84
2021/04/19 07:32:07;;;;;;;40.10;27.75;;;8.70;99.90;;;;;;4996561;28;20050;-83
2021/04/19 07:34:34;;;;;;;38.65;27.17;;;8.60;99.90;;;;;;4995553;28;20046;-83
2021/04/19 07:37:02;;;;;;;41.22;26.58;;;8.70;99.90;;;;;;4995379;28;20062;-84
2021/04/19 07:39:40;;;;;;;40.85;26.65;;;8.70;99.90;;;;;;4996752;28;20104;-83
2021/04/19 07:42:09;;;;;;;45.05;27.83;;;8.60;99.90;;;;;;4996539;28;20414;-83
2021/04/19 07:44:46;;;;;;;43.97;23.63;;;8.60;99.90;;;;;;4995195;28;20558;-84
2021/04/19 07:47:30;;;;;;;37.58;22.02;;;8.60;99.90;;;;;;4996450;28;20046;-83
2021/04/19 07:49:59;;;;;;;37.30;22.20;;;8.60;99.90;;;;;;4995419;28;20133;-83
2021/04/19 07:52:28;;;;;;;32.65;21.13;;;8.40;99.90;;;;;;4994987;28;20112;-84
2021/04/19 07:55:11;;;;;;;30.17;20.30;;;8.50;99.90;;;;;;4995278;28;20131;-84
2021/04/19 07:57:58;;;;;;;37.30;21.40;;;8.40;99.90;;;;;;5002338;28;20125;-84
2021/04/19 08:00:32;;;;;;;31.45;19.50;;;8.40;99.90;;;;;;5013757;28;20557;-83
2021/04/19 08:03:00;;;;;;;30.20;19.77;;;8.80;99.90;;;;;;5014465;28;20127;-83
2021/04/19 08:05:34;;;;;;;32.75;20.95;;;8.80;99.90;;;;;;5014187;28;20049;-83
2021/04/19 08:08:01;;;;;;;31.30;20.60;;;9.00;99.90;;;;;;5015287;28;20050;-83
2021/04/19 08:10:28;;;;;;;26.73;18.55;;;9.00;99.90;;;;;;5014313;28;20499;-84
2021/04/19 08:13:01;;;;;;;26.13;18.63;;;9.10;99.90;;;;;;5015638;28;20124;-83
2021/04/19 08:15:28;;;;;;;25.27;17.52;;;9.20;99.90;;;;;;5015257;28;20057;-83
2021/04/19 08:18:05;;;;;;;27.08;18.50;;;9.40;99.90;;;;;;5013554;28;20451;-83
2021/04/19 08:20:33;;;;;;;27.90;19.00;;;9.40;99.90;;;;;;5014006;28;20104;-84
2021/04/19 08:23:08;;;;;;;25.08;17.55;;;9.50;99.90;;;;;;5014098;28;20060;-83
2021/04/19 08:25:40;;;;;;;39.22;19.05;;;9.70;99.90;;;;;;5013804;28;20132;-83
2021/04/19 08:28:18;;;;;;;24.15;16.17;;;10.00;99.90;;;;;;5014908;28;20483;-83
2021/04/19 08:30:51;;;;;;;22.85;15.77;;;10.40;99.90;;;;;;5013791;28;20050;-84
2021/04/19 08:33:18;;;;;;;21.75;15.90;;;10.70;99.90;;;;;;5008135;28;20046;-83
2021/04/19 08:35:47;;;;;;;22.23;15.95;;;10.80;99.90;;;;;;5015096;28;20042;-83
2021/04/19 08:38:18;;;;;;;20.67;15.70;;;10.90;99.90;;;;;;5013987;28;20077;-83
2021/04/19 08:40:45;;;;;;;23.02;16.75;;;11.10;99.90;;;;;;5013463;28;20108;-84
2021/04/19 08:43:20;;;;;;;21.30;15.40;;;11.20;99.90;;;;;;5013886;28;20081;-84
2021/04/19 08:45:48;;;;;;;34.92;16.95;;;11.00;99.90;;;;;;5013538;28;20574;-84
2021/04/19 08:48:15;;;;;;;26.83;16.70;;;10.90;99.90;;;;;;5013349;28;20509;-84
2021/04/19 08:50:46;;;;;;;37.17;16.45;;;10.80;99.90;;;;;;5026440;28;20112;-84
2021/04/19 08:53:14;;;;;;;22.67;16.88;;;10.60;99.90;;;;;;5033422;28;20576;-83
2021/04/19 08:55:44;;;;;;;25.70;16.42;;;10.80;99.90;;;;;;5034837;28;20080;-84
2021/04/19 08:58:13;;;;;;;21.55;17.27;;;11.00;99.90;;;;;;5016934;28;20078;-83
2021/04/19 09:00:46;;;;;;;23.70;17.00;;;11.00;99.90;;;;;;5045306;28;20053;-84
2021/04/19 09:03:16;;;;;;;27.10;16.90;;;11.10;99.90;;;;;;5013551;28;20050;-84
2021/04/19 09:05:43;;;;;;;26.45;15.95;;;11.20;99.90;;;;;;5014957;28;20133;-84
2021/04/19 09:08:16;;;;;;;22.08;15.45;;;11.50;99.90;;;;;;5014818;28;20096;-84
2021/04/19 09:10:46;;;;;;;;;;;11.90;99.90;;;;;;5046693;28;20482;-84
2021/04/19 09:13:38;;;;;;;20.58;14.55;;;12.40;99.90;;;;;;5013351;28;19932;-84
2021/04/19 09:16:15;;;;;;;21.63;15.07;;;12.80;99.90;;;;;;5013570;28;20096;-83
2021/04/19 09:18:53;;;;;;;20.35;14.75;;;12.40;99.90;;;;;;5001785;28;20108;-83
2021/04/19 09:21:37;;;;;;;21.95;14.88;;;12.20;99.90;;;;;;5001365;28;20145;-84
2021/04/19 09:24:12;;;;;;;22.48;15.80;;;12.50;99.90;;;;;;5003555;28;20479;-84
2021/04/19 09:26:52;;;;;;;23.67;16.45;;;12.40;99.90;;;;;;5001788;28;20463;-84
2021/04/19 09:29:25;;;;;;;20.73;15.30;;;11.60;99.90;;;;;;5001053;28;20042;-84
2021/04/19 09:32:08;;;;;;;20.80;15.35;;;10.90;99.90;;;;;;5000618;28;20054;-83
2021/04/19 09:35:07;;;;;;;21.50;15.02;;;11.30;99.90;;;;;;5045561;28;20058;-83
2021/04/19 09:37:36;;;;;;;18.58;13.50;;;12.00;99.90;;;;;;4980691;28;20053;-84
2021/04/19 09:40:14;;;;;;;20.88;15.43;;;12.40;99.90;;;;;;5012817;28;20057;-84
2021/04/19 09:42:56;;;;;;;20.30;14.15;;;12.10;99.90;;;;;;5046129;28;20073;-84
2021/04/19 09:45:41;;;;;;;23.08;15.88;;;12.00;99.90;;;;;;5012819;28;20133;-84
2021/04/19 09:48:27;;;;;;;18.73;15.02;;;11.80;99.90;;;;;;5012837;28;20074;-84
2021/04/19 09:51:02;;;;;;;34.40;16.45;;;11.70;99.90;;;;;;4992721;28;20068;-84
2021/04/19 09:53:30;;;;;;;34.47;16.42;;;11.10;99.90;;;;;;5013680;28;20556;-84
2021/04/19 09:55:57;;;;;;;47.45;17.05;;;11.20;99.90;;;;;;5045529;28;20050;-84
2021/04/19 09:58:24;;;;;;;29.48;17.08;;;11.20;99.90;;;;;;5045276;28;20042;-84
2021/04/19 10:00:54;;;;;;;32.28;15.52;;;11.00;99.90;;;;;;5012212;28;20061;-83
2021/04/19 10:03:20;;;;;;;22.70;14.68;;;11.40;99.90;;;;;;5045642;28;20132;-84
2021/04/19 10:05:51;;;;;;;22.30;15.55;;;11.50;99.90;;;;;;5045342;28;20057;-84
2021/04/19 10:08:18;;;;;;;23.98;14.98;;;11.00;99.90;;;;;;5012144;28;20052;-84
2021/04/19 10:10:53;;;;;;;19.45;14.40;;;11.30;99.90;;;;;;5045518;28;20103;-83
2021/04/19 10:13:30;;;;;;;22.92;14.48;;;11.70;99.90;;;;;;5013532;28;20045;-83
2021/04/19 10:16:04;;;;;;;17.33;13.57;;;12.30;99.90;;;;;;5045395;28;20045;-84
2021/04/19 10:18:35;;;;;;;16.77;13.52;;;12.40;99.90;;;;;;5040456;28;20149;-84
2021/04/19 10:21:02;;;;;;;20.92;13.00;;;12.90;99.90;;;;;;5045426;28;20046;-84
2021/04/19 10:23:46;;;;;;;15.48;13.27;;;12.60;99.90;;;;;;5013318;28;20529;-83
2021/04/19 10:26:13;;;;;;;18.88;13.40;;;13.00;99.90;;;;;;5011942;28;20053;-84
2021/04/19 10:28:42;;;;;;;32.17;14.40;;;13.30;99.90;;;;;;5013151;28;20455;-84
2021/04/19 10:31:20;;;;;;;16.58;13.05;;;13.60;99.90;;;;;;5045033;28;20085;-83
2021/04/19 10:33:49;;;;;;;21.77;13.30;;;14.20;99.90;;;;;;5012386;28;20413;-84
2021/04/19 10:36:21;;;;;;;19.27;12.35;;;13.80;99.90;;;;;;5011695;28;20073;-84
2021/04/19 10:38:50;;;;;;;16.20;12.20;;;13.30;99.90;;;;;;5013328;28;20115;-84
2021/04/19 10:41:28;;;;;;;16.77;13.00;;;13.10;99.90;;;;;;5012873;28;20141;-83
2021/04/19 10:43:55;;;;;;;25.23;13.50;;;13.20;99.90;;;;;;5045070;28;20136;-83
2021/04/19 10:46:33;;;;;;;34.00;13.15;;;13.50;99.90;;;;;;5013108;28;20473;-84
2021/04/19 10:49:01;;;;;;;25.42;12.05;;;14.00;99.90;;;;;;5044632;28;20053;-84
2021/04/19 10:51:30;;;;;;;12.88;10.80;;;13.70;99.90;;;;;;5013062;28;20312;-84
2021/04/19 10:53:59;;;;;;;13.70;10.80;;;13.70;99.90;;;;;;5013057;28;20042;-84
2021/04/19 10:56:27;;;;;;;24.13;11.25;;;13.90;99.90;;;;;;5012816;28;20454;-84
2021/04/19 10:59:01;;;;;;;13.65;10.25;;;13.90;99.90;;;;;;5013045;28;20137;-84
2021/04/19 11:01:30;;;;;;;15.05;10.70;;;13.60;99.90;;;;;;5012883;28;20106;-84
2021/04/19 11:04:06;;;;;;;15.70;10.98;;;13.30;99.90;;;;;;5013141;28;20060;-84
2021/04/19 11:06:35;;;;;;;17.90;11.77;;;13.10;99.90;;;;;;5044409;28;20061;-84
2021/04/19 11:09:05;;;;;;;12.02;10.35;;;13.30;99.90;;;;;;5013033;28;20050;-83
2021/04/19 11:11:37;;;;;;;17.23;12.55;;;13.80;99.90;;;;;;5011569;28;20477;-84
2021/04/19 11:14:25;;;;;;;14.35;12.50;;;14.40;99.90;;;;;;5011766;28;20046;-84
2021/04/19 11:17:01;;;;;;;18.85;12.55;;;14.60;99.90;;;;;;5012905;28;20558;-84
2021/04/19 11:19:46;;;;;;;18.40;11.98;;;14.80;99.90;;;;;;5044598;28;20515;-84
2021/04/19 11:22:32;;;;;;;15.43;11.65;;;14.80;99.90;;;;;;5039840;28;20081;-84
2021/04/19 11:25:26;;;;;;;18.75;12.27;;;14.80;99.90;;;;;;5012833;28;20056;-84
2021/04/19 11:28:14;;;;;;;13.80;11.57;;;14.80;99.90;;;;;;5012773;28;20056;-84
2021/04/19 11:30:40;;;;;;;15.10;12.30;;;14.40;99.90;;;;;;5012565;28;20104;-84
2021/04/19 11:33:24;;;;;;;16.95;12.57;;;14.00;99.90;;;;;;5044529;28;20158;-84
2021/04/19 11:35:59;;;;;;;17.17;13.98;;;13.90;99.90;;;;;;5012842;28;20085;-84
2021/04/19 11:38:26;;;;;;;14.18;12.68;;;13.70;99.90;;;;;;5044064;28;20461;-84
2021/04/19 11:41:06;;;;;;;14.30;12.70;;;13.60;99.90;;;;;;5006352;28;20046;-83
2021/04/19 11:43:47;;;;;;;17.52;12.82;;;13.70;99.90;;;;;;5032071;28;20134;-84
2021/04/19 11:46:16;;;;;;;15.70;13.48;;;13.40;99.90;;;;;;5031087;28;20061;-83
2021/04/19 11:48:45;;;;;;;28.52;13.35;;;13.60;99.90;;;;;;5002117;28;20498;-84
2021/04/19 11:51:15;;;;;;;16.75;12.88;;;13.90;99.90;;;;;;5000016;28;20561;-84
2021/04/19 11:53:45;;;;;;;16.27;12.55;;;13.80;99.90;;;;;;5000782;28;20131;-83
2021/04/19 11:56:14;;;;;;;16.70;12.82;;;13.80;99.90;;;;;;5004642;28;20088;-84
2021/04/19 11:58:46;;;;;;;15.05;13.13;;;13.50;99.90;;;;;;5004445;28;20081;-83
2021/04/19 12:01:18;;;;;;;13.55;11.48;;;13.20;99.90;;;;;;5003542;28;20058;-84
2021/04/19 12:03:45;;;;;;;16.67;13.00;;;13.10;99.90;;;;;;5003707;28;20077;-84
2021/04/19 12:06:14;;;;;;;18.15;11.77;;;13.00;99.90;;;;;;5003242;28;20056;-84
2021/04/19 12:08:44;;;;;;;15.85;12.02;;;12.80;99.90;;;;;;5005435;28;20057;-84
2021/04/19 12:11:13;;;;;;;12.27;10.70;;;12.60;99.90;;;;;;5004351;28;20406;-84
2021/04/19 12:13:40;;;;;;;22.98;12.10;;;12.60;99.90;;;;;;5002317;28;20077;-84
2021/04/19 12:16:07;;;;;;;17.88;11.38;;;12.60;99.90;;;;;;5002392;28;20125;-84
2021/04/19 12:18:34;;;;;;;20.38;11.57;;;12.40;99.90;;;;;;5002980;28;20077;-83
2021/04/19 12:21:01;;;;;;;15.32;11.40;;;12.40;99.90;;;;;;5005119;28;20524;-83
2021/04/19 12:23:29;;;;;;;16.20;13.05;;;12.70;99.90;;;;;;5002397;28;20085;-84
2021/04/19 12:25:56;;;;;;;22.15;11.98;;;12.60;99.90;;;;;;5005234;28;20053;-84
2021/04/19 12:28:23;;;;;;;11.95;10.65;;;12.50;99.90;;;;;;5035757;28;20558;-83
2021/04/19 12:30:51;;;;;;;12.82;10.43;;;12.60;99.90;;;;;;5002892;28;20051;-84
2021/04/19 12:33:18;;;;;;;19.27;11.55;;;13.00;99.90;;;;;;5005323;28;20054;-84
2021/04/19 12:35:45;;;;;;;18.27;11.43;;;13.20;99.90;;;;;;5033930;28;20046;-84
2021/04/19 12:38:12;;;;;;;44.33;21.83;;;13.00;99.90;;;;;;5046776;28;20107;-83
2021/04/19 12:40:40;;;;;;;20.80;14.02;;;12.90;99.90;;;;;;5015238;28;20137;-84
2021/04/19 12:43:07;;;;;;;17.83;11.77;;;12.60;99.90;;;;;;5046841;28;20129;-83
2021/04/19 12:45:34;;;;;;;17.85;12.93;;;12.40;99.90;;;;;;5046755;28;20129;-84
2021/04/19 12:48:04;;;;;;;15.15;11.48;;;12.30;99.90;;;;;;5046772;28;20133;-84
2021/04/19 12:50:33;;;;;;;21.88;13.52;;;12.70;99.90;;;;;;5046750;28;20045;-83
2021/04/19 12:53:04;;;;;;;100.40;75.70;;;13.30;99.90;;;;;;5046748;28;20133;-84